Home > Products > Valid Products > TAF

000
FTUS41 KLWX 292100 AAB
TAFIAD
TAF AMD
KIAD 292100Z 2921/3024 30012G20KT P6SM SCT060 BKN250
     FM292300 32005KT P6SM SCT150
     FM301800 25005KT P6SM SCT250=



000
FTUS41 KLWX 292100 AAA
TAFDCA
TAF AMD
KDCA 292100Z 2921/3018 30011G19KT P6SM SCT060 BKN250
     FM292300 31007KT P6SM SCT110
     FM300400 VRB03KT P6SM SCT250=



000
FTUS41 KLWX 292100 AAA
TAFBWI
TAF AMD
KBWI 292100Z 2921/3024 30010KT P6SM SCT050 BKN250
     FM300100 VRB03KT P6SM SCT200=



000
FTUS41 KLWX 291800 AAA
TAFIAD
TAF AMD
KIAD 291810Z 2918/3024 30015G20KT P6SM BKN045
     FM292100 29009KT P6SM SCT045
     FM300000 32005KT P6SM SCT150
     FM301800 25005KT P6SM SCT250=



000
FTUS41 KLWX 291700
TAFMRB
TAF
KMRB 291735Z 2918/3018 30007KT P6SM OVC050
     FM300100 VRB03KT P6SM SCT200=



000
FTUS41 KLWX 291700
TAFMTN
TAF
KMTN 291735Z 2918/3018 25006KT P6SM OVC045
     FM300100 00000KT P6SM SCT200
     FM301700 20006KT P6SM SCT250=



000
FTUS41 KLWX 291700
TAFIAD
TAF
KIAD 291735Z 2918/3024 29009KT P6SM BKN045
     FM300000 32005KT P6SM SCT150
     FM301800 25005KT P6SM SCT250=



000
FTUS41 KLWX 291700
TAFBWI
TAF
KBWI 291735Z 2918/3024 29007KT P6SM BKN045
     FM300100 VRB03KT P6SM SCT200=



000
FTUS41 KLWX 291700
TAFCHO
TAF
KCHO 291735Z 2918/3018 28005KT P6SM OVC050
     FM292300 00000KT P6SM BKN110
     FM300900 00000KT P6SM SCT250=



000
FTUS41 KLWX 291700
TAFDCA
TAF
KDCA 291735Z 2918/3018 30012G20KT P6SM BKN045
     FM292100 31007KT P6SM SCT110
     FM300400 VRB03KT P6SM SCT250=



000
FTUS41 KLWX 291400 AAA
TAFBWI
TAF AMD
KBWI 291435Z 2915/3018 30006KT P6SM BKN080
     FM300600 00000KT P6SM FEW250=



000
FTUS41 KLWX 291400 AAB
TAFDCA
TAF AMD
KDCA 291435Z 2915/3012 30009KT P6SM FEW080=



000
FTUS41 KLWX 291400 AAA
TAFIAD
TAF AMD
KIAD 291435Z 2915/3018 31013KT P6SM FEW090
     FM300300 00000KT P6SM FEW050
     FM300600 00000KT P6SM FEW250=



000
FTUS41 KLWX 291200 AAA
TAFDCA
TAF AMD
KDCA 291200Z 2912/3012 32010G16KT P6SM BKN070
     FM291400 32009KT P6SM SCT090=



000
FTUS41 KLWX 291100
TAFBWI
TAF
KBWI 291136Z 2912/3018 27006KT P6SM BKN060
     FM291300 31006KT P6SM SCT090
     FM300600 00000KT P6SM FEW250=



000
FTUS41 KLWX 291100
TAFCHO
TAF
KCHO 291136Z 2912/3012 VRB03KT P6SM SCT090
     FM291500 34007KT P6SM SCT090
     FM292300 VRB03KT P6SM SCT050
     FM300700 34004KT P6SM SCT250=



000
FTUS41 KLWX 291100
TAFMTN
TAF
KMTN 291136Z 2912/3012 26006KT P6SM BKN060
     FM291300 31006KT P6SM SCT090
     FM300000 00000KT P6SM FEW050
     FM300600 VRB03KT P6SM FEW250=



000
FTUS41 KLWX 291100
TAFDCA
TAF
KDCA 291136Z 2912/3012 32006KT P6SM BKN060
     FM291300 32006KT P6SM SCT090=



000
FTUS41 KLWX 291100
TAFMRB
TAF
KMRB 291136Z 2912/3012 30006KT P6SM SCT090
     FM300100 00000KT P6SM FEW050
     FM300600 00000KT P6SM FEW250=



000
FTUS41 KLWX 291100
TAFIAD
TAF
KIAD 291136Z 2912/3018 31006KT P6SM SCT090
     FM300300 00000KT P6SM FEW050
     FM300600 00000KT P6SM FEW250=



000
FTUS41 KLWX 290800 AAA
TAFDCA
TAF AMD
KDCA 290835Z 2909/3006 32007KT P6SM SCT090
     FM300300 VRB03KT P6SM FEW050=



000
FTUS41 KLWX 290800 AAA
TAFIAD
TAF AMD
KIAD 290835Z 2909/3012 31006KT P6SM SCT090
     FM300300 00000KT P6SM FEW050=



000
FTUS41 KLWX 290800 AAA
TAFBWI
TAF AMD
KBWI 290835Z 2909/3012 32006KT P6SM SCT090
     FM300600 00000KT P6SM FEW250=



000
FTUS41 KLWX 290500
TAFMRB
TAF
KMRB 290530Z 2906/3006 30005KT P6SM SCT090
     FM291400 30009KT P6SM SCT090
     FM292300 32005KT P6SM FEW050=



000
FTUS41 KLWX 290500
TAFMTN
TAF
KMTN 290530Z 2906/3006 NIL=



000
FTUS41 KLWX 290500
TAFCHO
TAF
KCHO 290530Z 2906/3006 VRB03KT P6SM SCT090
     FM291400 34007KT P6SM SCT090
     FM292300 VRB03KT P6SM SCT050=



000
FTUS41 KLWX 290500
TAFIAD
TAF
KIAD 290530Z 2906/3012 31007KT P6SM SCT090
     FM300100 VRB03KT P6SM FEW050
     FM300600 00000KT P6SM FEW250=



000
FTUS41 KLWX 290500
TAFDCA
TAF
KDCA 290530Z 2906/3006 32008KT P6SM SCT090
     FM300000 32004KT P6SM FEW050=



000
FTUS41 KLWX 290500
TAFBWI
TAF
KBWI 290530Z 2906/3012 31008KT P6SM SCT090
     FM300000 VRB03KT P6SM FEW050
     FM300600 00000KT P6SM FEW250=



000
FTUS41 KLWX 282300
TAFBWI
TAF
KBWI 282327Z 2900/3006 30012G20KT P6SM BKN060
      TEMPO 2900/2901 VRB30KT 5SM -SHRA BKN040
     FM290200 32009KT P6SM BKN090
     FM290800 32007KT P6SM SCT090=



000
FTUS41 KLWX 282300
TAFDCA
TAF
KDCA 282327Z 2900/2924 30015G24KT P6SM BKN060
     FM290300 32010KT P6SM SCT090
     FM291000 32006KT P6SM SCT090=



000
FTUS41 KLWX 282300
TAFCHO
TAF
KCHO 282327Z 2900/2924 32008KT P6SM SCT050
     FM290600 VRB03KT P6SM SCT090
     FM291500 34007KT P6SM SCT090=



000
FTUS41 KLWX 282300
TAFMRB
TAF
KMRB 282327Z 2900/2924 31013G22KT P6SM BKN070
     FM290200 30009KT P6SM BKN090
     FM290600 30006KT P6SM SCT090=



000
FTUS41 KLWX 282300
TAFMTN
TAF
KMTN 282327Z 2900/2924 30012G20KT P6SM BKN050
     FM290200 32009KT P6SM BKN090
     FM291000 32006KT P6SM SCT090
      AMD NOT SKED 2902/2912=



000
FTUS41 KLWX 282300
TAFIAD
TAF
KIAD 282327Z 2900/3006 30014G22KT P6SM BKN070
     FM290200 31009KT P6SM SCT090
     FM290800 31005KT P6SM SCT090
     FM291500 30009KT P6SM SCT090=



000
FTUS41 KLWX 282100 AAA
TAFIAD
TAF AMD
KIAD 282101Z 2821/2924 28017G25KT P6SM BKN070
     FM290000 30011KT P6SM BKN070
     FM290400 31007KT P6SM SCT090
     FM291500 31010KT P6SM SCT050=



000
FTUS41 KLWX 282100 AAA
TAFBWI
TAF AMD
KBWI 282101Z 2821/2924 28018G25KT P6SM BKN070
     FM290000 30013KT P6SM BKN070
     FM290300 30009KT P6SM BKN090
     FM290800 30006KT P6SM SCT090
     FM291500 31010KT P6SM SCT050=



000
FTUS41 KLWX 282100 AAA
TAFDCA
TAF AMD
KDCA 282101Z 2821/2918 28018G27KT P6SM BKN060
     FM290100 31012KT P6SM BKN060
     FM290400 31009KT P6SM SCT090
     FM291500 31010KT P6SM SCT050=



000
FTUS41 KLWX 281700
TAFMRB
TAF
KMRB 281728Z 2818/2918 29018G27KT P6SM SCT050
     FM290000 30011KT P6SM BKN050
     FM290300 29007KT P6SM BKN090
     FM290500 30006KT P6SM SCT090
     FM291500 31010KT P6SM SCT050 SCT250=



000
FTUS41 KLWX 281700
TAFIAD
TAF
KIAD 281728Z 2818/2924 28018G27KT P6SM BKN050
     FM290000 30011KT P6SM BKN050
     FM290400 31007KT P6SM SCT090
     FM291500 31010KT P6SM SCT050=



000
FTUS41 KLWX 281700
TAFBWI
TAF
KBWI 281728Z 2818/2924 27018G27KT P6SM BKN050
     FM290000 30013KT P6SM BKN050
     FM290300 30009KT P6SM BKN090
     FM290800 30006KT P6SM SCT090
     FM291500 31010KT P6SM SCT050=



000
FTUS41 KLWX 281700
TAFDCA
TAF
KDCA 281728Z 2818/2918 28018G27KT P6SM BKN050
     FM290100 31012KT P6SM BKN050
     FM290400 31009KT P6SM SCT090
     FM291500 31010KT P6SM SCT050=



000
FTUS41 KLWX 281700
TAFCHO
TAF
KCHO 281728Z 2818/2918 28012KT P6SM SCT050
     FM282300 31008KT P6SM BKN050
     FM290200 31005KT P6SM FEW050
     FM291500 31006KT P6SM SCT050=



000
FTUS41 KLWX 281700
TAFMTN
TAF
KMTN 281728Z 2818/2918 27018G27KT P6SM BKN050
     FM290100 30012KT P6SM BKN050
     FM290500 30007KT P6SM BKN090
     FM291000 30006KT P6SM SCT090
     FM291500 31010KT P6SM SCT050=



000
FTUS41 KLWX 281400 AAA
TAFBWI
TAF AMD
KBWI 281456Z 2815/2918 29016G25KT P6SM SCT050 BKN090
     FM290000 30012KT P6SM BKN050
     FM290300 28009KT P6SM BKN090
     FM290600 28006KT P6SM SCT250=



000
FTUS41 KLWX 281400 AAA
TAFDCA
TAF AMD
KDCA 281456Z 2815/2912 30016G26KT P6SM SCT050 BKN090
     FM290000 31013KT P6SM BKN090
     FM290600 31009KT P6SM BKN090
     FM290800 30007KT P6SM SCT090=



000
FTUS41 KLWX 281400 AAA
TAFIAD
TAF AMD
KIAD 281456Z 2815/2918 30015G25KT P6SM SCT050 BKN090
     FM282300 30012KT P6SM BKN050
     FM290300 31008KT P6SM BKN090
     FM290400 31006KT P6SM SCT090=



000
FTUS41 KLWX 281100
TAFMTN
TAF
KMTN 281133Z 2812/2912 24010KT P6SM FEW090
     FM281400 28014G25KT P6SM SCT050 BKN090
     FM290000 30012KT P6SM BKN050
     FM290400 27008KT P6SM BKN090
     FM290600 26005KT P6SM SCT250=



000
FTUS41 KLWX 281100
TAFDCA
TAF
KDCA 281133Z 2812/2912 24007KT P6SM FEW090
     FM281400 29013G26KT P6SM SCT050 BKN090
     FM290000 31013KT P6SM BKN090
     FM290600 31009KT P6SM BKN090
     FM290800 30007KT P6SM SCT090=



000
FTUS41 KLWX 281100
TAFBWI
TAF
KBWI 281133Z 2812/2918 24010KT P6SM FEW090
     FM281400 29014G25KT P6SM SCT050 BKN090
     FM290000 30012KT P6SM BKN050
     FM290300 28009KT P6SM BKN090
     FM290600 28006KT P6SM SCT250=



000
FTUS41 KLWX 281100
TAFIAD
TAF
KIAD 281133Z 2812/2918 22008KT P6SM FEW090
     FM281400 29012G25KT P6SM SCT050 BKN090
     FM282300 30012KT P6SM BKN050
     FM290300 31008KT P6SM BKN090
     FM290400 31006KT P6SM SCT090=



000
FTUS41 KLWX 281100
TAFMRB
TAF
KMRB 281133Z 2812/2912 27012KT P6SM SCT050 BKN090
     FM281400 29012G25KT P6SM SCT050 BKN090
     FM290000 30012KT P6SM BKN050
     FM290300 28008KT P6SM BKN250
     FM290600 29004KT P6SM SCT250=



000
FTUS41 KLWX 281100
TAFCHO
TAF
KCHO 281133Z 2812/2912 22007KT P6SM FEW090
     FM281600 28011G20KT P6SM FEW050
     FM282000 30011KT P6SM SCT050
     FM282300 33007KT P6SM SCT050
     FM290000 34005KT P6SM BKN090
     FM290400 00000KT P6SM SCT090=



000
FTUS41 KLWX 280800 AAA
TAFBWI
TAF AMD
KBWI 280838Z 2809/2912 22007KT P6SM SCT050 BKN130
     FM281400 28013G22KT P6SM SCT050 BKN090
     FM282300 28009KT P6SM BKN090
     FM290600 28006KT P6SM SCT250=



000
FTUS41 KLWX 280800 AAA
TAFDCA
TAF AMD
KDCA 280838Z 2809/2906 22006KT P6SM FEW050 SCT130
     FM281400 28011G22KT P6SM SCT050 BKN090
     FM282300 28012KT P6SM BKN050
     FM290300 31012KT P6SM BKN090=



000
FTUS41 KLWX 280800 AAA
TAFIAD
TAF AMD
KIAD 280838Z 2809/2912 22007KT P6SM FEW050 SCT130
     FM281300 27009KT P6SM SCT050 BKN090
     FM281430 29013G22KT P6SM SCT050 BKN090
     FM282300 31008KT P6SM BKN090
     FM290400 31006KT P6SM SCT090=



000
FTUS41 KLWX 280800 AAB
TAFMRB
TAF AMD
KMRB 280811Z 2808/2906 24005KT P6SM SKC
     FM281000 26010KT P6SM SCT050 BKN130
     FM281500 30012G24KT P6SM SCT025 BKN090
     FM290100 30008KT P6SM BKN250=



000
FTUS41 KLWX 280600 AAA
TAFMRB
TAF AMD
KMRB 280640Z 2807/2906 00000KT 1/2SM FG VV001
     FM281000 26010KT P6SM SCT050 BKN130
     FM281500 30012G24KT P6SM SCT025 BKN090
     FM290100 30008KT P6SM BKN250=



000
FTUS41 KLWX 280500
TAFDCA
TAF
KDCA 280520Z 2806/2906 22006KT P6SM VCTS SCT050CB BKN090
     FM281000 26010KT P6SM SCT050 BKN130
     FM281500 29013G22KT P6SM SCT050 BKN090
     FM282300 30011KT P6SM BKN050
     FM290500 33007KT P6SM BKN090=



000
FTUS41 KLWX 280500
TAFMTN
TAF
KMTN 280520Z 2806/2906 NIL=



000
FTUS41 KLWX 280500
TAFCHO
TAF
KCHO 280520Z 2806/2906 25007KT P6SM VCTS SCT050CB BKN090
     FM281000 26007KT P6SM SCT050 BKN130
     FM281500 28011G20KT P6SM SCT050 BKN090
     FM282000 29011KT P6SM SCT050
     FM282300 30007KT P6SM SCT050
     FM290000 30004KT P6SM BKN090=



000
FTUS41 KLWX 280500
TAFMRB
TAF
KMRB 280520Z 2806/2906 23007KT P6SM VCTS SCT050CB BKN090
     FM281000 26010KT P6SM SCT050 BKN130
     FM281500 30012G24KT P6SM SCT025 BKN090
     FM290100 30008KT P6SM BKN250=



000
FTUS41 KLWX 280500
TAFBWI
TAF
KBWI 280520Z 2806/2912 23006KT P6SM VCTS SCT050CB BKN090
     FM281000 26009KT P6SM SCT050 BKN130
     FM281400 29014G24KT P6SM SCT050 BKN090
     FM290000 30009KT P6SM BKN050
     FM290700 32005KT P6SM BKN250=



000
FTUS41 KLWX 280500
TAFIAD
TAF
KIAD 280520Z 2806/2912 24006KT P6SM VCTS SCT050CB BKN090
     FM281000 26009KT P6SM SCT050 BKN130
     FM281500 29013G22KT P6SM SCT050 BKN090
     FM290000 30008KT P6SM BKN050
     FM290500 32006KT P6SM SCT090=



000
FTUS41 KLWX 280300 AAB
TAFBWI
TAF AMD
KBWI 280341Z 2804/2906 17004KT P6SM VCTS FEW030CB BKN100 BKN160
      TEMPO 2804/2806 30010G20KT 3SM -TSRA BKN030CB
     FM280600 23006KT P6SM VCTS SCT050CB BKN090
     FM281000 26009KT P6SM SCT050 BKN130
     FM281300 27013KT P6SM FEW050 SCT090
     FM281400 29014KT P6SM SCT050 BKN090
     FM290000 30009KT P6SM BKN050=



000
FTUS41 KLWX 280200 AAA
TAFBWI
TAF AMD
KBWI 280217Z 2802/2906 20005KT P6SM SCT050 OVC090
     FM280400 22007KT 5SM -TSRA BKN050CB
     FM280600 23006KT P6SM VCTS SCT050CB BKN090
     FM281000 26009KT P6SM SCT050 BKN130
     FM281300 27013KT P6SM FEW050 SCT090
     FM281400 29014KT P6SM SCT050 BKN090
     FM290000 30009KT P6SM BKN050=



000
FTUS41 KLWX 280200 AAA
TAFDCA
TAF AMD
KDCA 280214Z 2802/2824 19010KT P6SM SCT040 BKN090
     FM280400 22007KT 5SM -TSRA BKN050CB
     FM280600 22006KT P6SM VCTS BKN050CB
     FM280900 26010KT P6SM SCT050 BKN130
     FM282300 30011KT P6SM BKN050=



000
FTUS41 KLWX 280200 AAA
TAFIAD
TAF AMD
KIAD 280212Z 2802/2906 22008KT P6SM SCT050 BKN090
     FM280300 24007KT 5SM -TSRA BKN050CB
     FM280500 24005KT P6SM VCTS BKN050CB
     FM280600 24006KT P6SM SCT050 BKN090
     FM281100 27009KT P6SM FEW050 SCT130
     FM281300 27011KT P6SM SCT050 BKN090
     FM290200 31007KT P6SM BKN090=



000
FTUS41 KLWX 280100 AAA
TAFMRB
TAF AMD
KMRB 280154Z 2802/2824 24007KT 6SM SHRA VCTS SCT050CB OVC090
      TEMPO 2802/2803 VRB30KT 3SM TSRA BKN025CB
     FM280400 24006KT P6SM VCTS BKN050CB
     FM280600 23007KT P6SM SCT050 BKN090
     FM281200 27011KT P6SM SCT050 BKN090=



000
FTUS41 KLWX 272300
TAFIAD
TAF
KIAD 272331Z 2800/2906 22008KT P6SM VCTS SCT040CB BKN090
     FM280200 24005KT 5SM -TSRA BKN050CB
     FM280400 24005KT P6SM VCTS BKN050CB
     FM280600 24006KT P6SM SCT050 BKN090
     FM281100 27009KT P6SM FEW050 SCT130
     FM281300 27011KT P6SM SCT050 BKN090
     FM290200 31007KT P6SM BKN090=



000
FTUS41 KLWX 272300
TAFDCA
TAF
KDCA 272331Z 2800/2824 24012KT P6SM SCT040 BKN090
     FM280100 23010KT P6SM VCTS SCT050CB BKN090
     FM280300 22007KT 5SM -TSRA BKN050CB
     FM280500 22006KT P6SM VCTS BKN050CB
     FM280900 26010KT P6SM SCT050 BKN130
     FM282300 30011KT P6SM BKN050=



000
FTUS41 KLWX 272300
TAFMTN
TAF
KMTN 272331Z 2800/2824 18008KT P6SM SCT040 OVC090
     FM280100 21008KT P6SM VCTS SCT050CB OVC090
     FM280300 22007KT 5SM -TSRA BKN050CB
     FM280600 23006KT P6SM VCTS SCT050CB BKN090
     FM281000 25009KT P6SM SCT050 BKN130
     FM281300 27013KT P6SM FEW050 SCT090
     FM281400 28014KT P6SM SCT050 BKN090
      AMD NOT SKED 2802/2812=



000
FTUS41 KLWX 272300
TAFMRB
TAF
KMRB 272331Z 2800/2824 24007KT 5SM SHRA VCTS SCT050CB OVC090
      TEMPO 2800/2802 3SM TSRA BKN030CB
     FM280400 24006KT P6SM VCTS BKN050CB
     FM280600 23007KT P6SM SCT050 BKN090
     FM281200 27011KT P6SM SCT050 BKN090=



000
FTUS41 KLWX 272300
TAFCHO
TAF
KCHO 272331Z 2800/2824 23007KT P6SM SCT050 BKN090
     FM280200 22006KT P6SM VCTS BKN050CB
     FM280400 22006KT P6SM -TSRA SCT050CB BKN090
     FM280600 25007KT P6SM SCT050 BKN090
     FM281100 25007KT P6SM FEW050 SCT130
     FM281400 27010KT P6SM SCT050 BKN090=



000
FTUS41 KLWX 272300
TAFBWI
TAF
KBWI 272331Z 2800/2906 21008KT P6SM SCT040 OVC090
     FM280100 21008KT P6SM VCTS SCT050CB OVC090
     FM280300 22007KT 5SM -TSRA BKN050CB
     FM280600 23006KT P6SM VCTS SCT050CB BKN090
     FM281000 26009KT P6SM SCT050 BKN130
     FM281300 27013KT P6SM FEW050 SCT090
     FM281400 29014KT P6SM SCT050 BKN090
     FM290000 30009KT P6SM BKN050=



000
FTUS41 KLWX 272100 AAA
TAFBWI
TAF AMD
KBWI 272115Z 2721/2824 21008KT P6SM FEW050 BKN130
     FM272300 22009KT P6SM VCTS BKN050CB BKN130
     FM280100 20010KT 5SM TSRA BKN050CB BKN130
     FM280500 22011KT P6SM -SHRA VCTS BKN050CB BKN130
     FM280700 25011KT P6SM -SHRA SCT050 SCT130
     FM281000 26010KT P6SM FEW050 SCT130
     FM281600 28015KT P6SM BKN050=



000
FTUS41 KLWX 272100 AAA
TAFDCA
TAF AMD
KDCA 272115Z 2721/2818 21011KT P6SM SCT050 BKN130
     FM272300 21009KT P6SM VCTS BKN050CB BKN130
     FM280100 20010KT 5SM TSRA BKN050CB BKN130
     FM280400 22011KT P6SM VCTS BKN050CB BKN130
     FM280600 23011KT P6SM BKN050 BKN130
     FM280800 25009KT P6SM FEW050 SCT130
     FM281300 27013KT P6SM SCT050=



000
FTUS41 KLWX 272100 AAA
TAFIAD
TAF AMD
KIAD 272115Z 2721/2824 19008KT P6SM SCT070 BKN130
     FM272200 21009KT P6SM VCTS BKN050CB BKN130
     FM280000 20009KT 5SM TSRA BKN050CB BKN130
     FM280300 23010KT P6SM BKN050 BKN130
     FM280800 25009KT P6SM FEW050 SCT130
     FM281400 28014KT P6SM SCT050
     FM281900 29015G23KT P6SM BKN050
     FM282300 30010KT P6SM BKN050=



000
FTUS41 KLWX 271700
TAFMTN
TAF
KMTN 271737Z 2718/2818 22009KT P6SM FEW050 SCT130
     FM272100 22010KT P6SM VCTS BKN050CB BKN130
     FM280000 20010KT 5SM TSRA BKN050CB BKN130
     FM280500 16009KT 5SM TSRA BKN050CB BKN130
     FM280700 22013KT P6SM -SHRA BKN050 BKN130
     FM281000 25011KT P6SM FEW050 SCT130
     FM281600 27014KT P6SM BKN050=



000
FTUS41 KLWX 271700
TAFDCA
TAF
KDCA 271737Z 2718/2818 21009KT P6SM SCT050 BKN130
     FM272000 21009KT P6SM VCTS BKN050CB BKN130
     FM280000 20010KT 5SM TSRA BKN050CB BKN130
     FM280400 22011KT P6SM VCTS BKN050CB BKN130
     FM280600 23011KT P6SM BKN050 BKN130
     FM280800 25009KT P6SM FEW050 SCT130
     FM281300 27013KT P6SM SCT050=



000
FTUS41 KLWX 271700
TAFIAD
TAF
KIAD 271737Z 2718/2824 19008KT P6SM SCT050 SCT130
     FM272000 21009KT P6SM VCTS BKN050CB BKN130
     FM280000 20009KT 5SM TSRA BKN050CB BKN130
     FM280300 23010KT P6SM BKN050 BKN130
     FM280800 25009KT P6SM FEW050 SCT130
     FM281400 28014KT P6SM SCT050
     FM281900 29015G23KT P6SM BKN050
     FM282300 30010KT P6SM BKN050=



000
FTUS41 KLWX 271700
TAFCHO
TAF
KCHO 271737Z 2718/2818 21008KT P6SM -SHRA BKN050 BKN130
     FM272000 21009KT P6SM VCTS BKN050CB BKN130
     FM272300 21009KT 5SM TSRA BKN050CB BKN130
     FM280300 24009KT P6SM BKN050 BKN130
     FM280800 25007KT P6SM FEW050 SCT130
     FM281400 27011KT P6SM SCT050=



000
FTUS41 KLWX 271700
TAFMRB
TAF
KMRB 271737Z 2718/2818 23008KT P6SM BKN050 BKN130
     FM272000 22008KT P6SM VCTS BKN050CB BKN130
     FM280000 18008KT 5SM TSRA BKN050CB BKN130
     FM280300 26009KT P6SM BKN050 BKN130
     FM280900 26008KT P6SM FEW050 SCT130
     FM281300 28013KT P6SM SCT050
     FM281400 28015KT P6SM BKN050=



000
FTUS41 KLWX 271700
TAFBWI
TAF
KBWI 271737Z 2718/2824 22008KT P6SM FEW050 SCT130
     FM272100 22009KT P6SM VCTS BKN050CB BKN130
     FM280000 20010KT 5SM TSRA BKN050CB BKN130
     FM280500 22011KT P6SM -SHRA VCTS BKN050CB BKN130
     FM280700 25011KT P6SM -SHRA SCT050 SCT130
     FM281000 26010KT P6SM FEW050 SCT130
     FM281600 28015KT P6SM BKN050=



000
FTUS41 KLWX 271500 AAA
TAFIAD
TAF AMD
KIAD 271514Z 2715/2818 22007KT P6SM SCT050 BKN130
     FM271800 22012KT P6SM VCTS BKN050CB BKN130
     FM272200 22012KT 5SM SHRA VCTS BKN050CB BKN130
     FM280400 22008KT P6SM SCT050 SCT130
     FM281200 28010G18KT P6SM BKN050=



000
FTUS41 KLWX 271500 AAA
TAFDCA
TAF AMD
KDCA 271514Z 2715/2812 24007KT P6SM SCT050 BKN130
     FM271800 21012KT P6SM VCTS BKN050CB BKN130
     FM272300 20012KT 5SM SHRA VCTS BKN050CB BKN130
     FM280500 21006KT P6SM SCT050 SCT130=



000
FTUS41 KLWX 271500 AAA
TAFBWI
TAF AMD
KBWI 271514Z 2715/2818 25006KT P6SM SCT050 SCT130
     FM271900 23012KT P6SM VCTS BKN050CB BKN130
     FM280000 22008KT 5SM SHRA VCTS BKN050CB BKN130
     FM280600 20006KT P6SM BKN050 BKN130
     FM280800 24008KT P6SM FEW050 SCT130
     FM281300 27010G18KT P6SM BKN050=



000
FTUS41 KLWX 271100
TAFBWI
TAF
KBWI 271139Z 2712/2818 25006KT P6SM BKN050 BKN130
     FM271900 23012KT P6SM VCTS BKN050CB BKN130
     FM280000 22008KT 5SM SHRA VCTS BKN050CB BKN130
     FM280600 20006KT P6SM BKN050 BKN130
     FM280800 24008KT P6SM FEW050 SCT130
     FM281300 27010G18KT P6SM BKN050=



000
FTUS41 KLWX 271100
TAFMTN
TAF
KMTN 271139Z 2712/2812 25006KT P6SM BKN050 BKN130
     FM271700 23012KT P6SM VCTS BKN050CB BKN130
     FM280000 22008KT 5SM SHRA VCTS BKN050CB BKN130
     FM280600 20006KT P6SM BKN050 BKN130
     FM280800 24008KT P6SM FEW050 SCT130=



000
FTUS41 KLWX 271100
TAFDCA
TAF
KDCA 271139Z 2712/2812 20015KT P6SM BKN050 BKN130
     FM271300 24007KT 6SM -SHRA BKN050 OVC130
     FM271800 21012KT P6SM VCTS BKN050CB BKN130
     FM272300 20012KT 5SM SHRA VCTS BKN050CB BKN130
     FM280500 21006KT P6SM SCT050 SCT130=



000
FTUS41 KLWX 271100
TAFCHO
TAF
KCHO 271139Z 2712/2812 VRB03KT 6SM -SHRA VCTS BKN050CB OVC130
     FM271400 26006KT P6SM SCT050
     FM271700 26006KT P6SM VCTS BKN050CB BKN130
     FM272200 22008KT 5SM SHRA VCTS BKN050CB BKN130
     FM280400 22006KT P6SM BKN050 BKN130=



000
FTUS41 KLWX 271100
TAFMRB
TAF
KMRB 271139Z 2712/2812 VRB04KT P6SM SCT050 BKN130
     FM271700 23006KT P6SM VCTS BKN050CB BKN130
     FM271900 24008KT 5SM SHRA VCTS BKN050CB BKN130
     FM280100 23005KT P6SM BKN050 BKN130
     FM280500 24007KT P6SM SCT050 SCT130
     FM281100 27010G18KT P6SM FEW050 SCT130=



000
FTUS41 KLWX 271100
TAFIAD
TAF
KIAD 271139Z 2712/2818 24007KT P6SM BKN050 OVC130
     FM271800 22012KT P6SM VCTS BKN050CB BKN130
     FM272200 22012KT 5SM SHRA VCTS BKN050CB BKN130
     FM280400 22008KT P6SM SCT050 SCT130
     FM281200 28010G18KT P6SM BKN050=



000
FTUS41 KLWX 271000 AAB
TAFDCA
TAF AMD
KDCA 271017Z 2710/2806 VRB03KT 6SM -SHRA BKN050 OVC130
     FM271100 21015KT P6SM VCSH BKN050 BKN130
     FM271300 20005KT P6SM VCSH BKN050 BKN130
     FM271600 21010KT P6SM VCTS BKN050CB BKN130
     FM272200 20008KT 5SM SHRA VCTS BKN050CB BKN130
     FM280500 21006KT P6SM SCT050 SCT130=



000
FTUS41 KLWX 271000 AAB
TAFIAD
TAF AMD
KIAD 271015Z 2710/2812 21015KT 6SM -SHRA BKN050 OVC130
     FM271100 VRB04KT P6SM VCSH BKN050 BKN130
     FM271600 22008KT P6SM VCTS BKN050CB BKN130
     FM272200 22007KT 5SM SHRA VCTS BKN050CB BKN130
     FM280500 21007KT P6SM SCT050 SCT130=



000
FTUS41 KLWX 270800 AAA
TAFDCA
TAF AMD
KDCA 270856Z 2709/2806 22004KT 6SM -SHRA BKN050 OVC130
     FM271100 21004KT P6SM VCSH BKN050 BKN130
     FM271600 20008KT P6SM VCTS BKN050CB BKN130
     FM272200 20008KT 5SM SHRA VCTS BKN050CB BKN130
     FM280500 21006KT P6SM SCT050 SCT130=



000
FTUS41 KLWX 270800 AAA
TAFIAD
TAF AMD
KIAD 270856Z 2709/2812 VRB03KT 6SM -SHRA BKN050 OVC130
     FM271100 VRB04KT P6SM VCSH BKN050 BKN130
     FM271600 22008KT P6SM VCTS BKN050CB BKN130
     FM272200 22007KT 5SM SHRA VCTS BKN050CB BKN130
     FM280500 21007KT P6SM SCT050 SCT130=



000
FTUS41 KLWX 270800 AAA
TAFBWI
TAF AMD
KBWI 270856Z 2709/2812 VRB03KT P6SM VCSH BKN050 BKN130
     FM271500 23008KT P6SM BKN050 BKN130
     FM272200 22008KT 5SM SHRA VCTS BKN050CB BKN130
     FM280500 20006KT P6SM BKN050 BKN130
     FM280800 24008KT P6SM FEW050 SCT130=



000
FTUS41 KLWX 270500
TAFIAD
TAF
KIAD 270520Z 2706/2812 VRB03KT P6SM VCSH BKN050 OVC130
     FM271600 22008KT P6SM VCTS BKN050CB BKN130
     FM272200 22007KT 5SM SHRA VCTS BKN050CB BKN130
     FM280500 21007KT P6SM SCT050 SCT130=



000
FTUS41 KLWX 270500
TAFMTN
TAF
KMTN 270520Z 2706/2806 NIL=



000
FTUS41 KLWX 270500
TAFMRB
TAF
KMRB 270520Z 2706/2806 VRB03KT 6SM -SHRA BKN050 OVC130
     FM270900 VRB03KT 5SM BR VCSH BKN050 OVC130
     FM271300 22006KT P6SM VCSH BKN050 BKN130
     FM271600 23006KT P6SM VCTS BKN050CB BKN130
     FM271900 24008KT 5SM SHRA VCTS BKN050CB BKN130
     FM280100 23005KT P6SM BKN050 BKN130=



000
FTUS41 KLWX 270500
TAFCHO
TAF
KCHO 270520Z 2706/2806 VRB03KT P6SM VCSH BKN050 BKN130
     FM270900 VRB03KT 6SM -SHRA BKN050 OVC130
     FM271600 26006KT P6SM VCTS BKN050CB BKN130
     FM272200 22008KT 5SM SHRA VCTS BKN050CB BKN130
     FM280500 22006KT P6SM BKN050 BKN130=



000
FTUS41 KLWX 270500
TAFDCA
TAF
KDCA 270520Z 2706/2806 17004KT P6SM VCSH BKN050 OVC130
     FM271600 20008KT P6SM VCTS BKN050CB BKN130
     FM272200 20008KT 5SM SHRA VCTS BKN050CB BKN130
     FM280500 21006KT P6SM SCT050 SCT130=



000
FTUS41 KLWX 270500
TAFBWI
TAF
KBWI 270520Z 2706/2812 VRB03KT P6SM BKN050 BKN130
     FM271500 23008KT P6SM BKN050 BKN130
     FM272200 22008KT 5SM SHRA VCTS BKN050CB BKN130
     FM280500 20006KT P6SM BKN050 BKN130
     FM280800 24008KT P6SM FEW050 SCT130=



000
FTUS41 KLWX 270200 AAA
TAFIAD
TAF AMD
KIAD 270239Z 2703/2806 16005KT P6SM BKN090
      TEMPO 2703/2704 5SM -SHRA BKN050
     FM271200 23004KT P6SM BKN090
     FM271800 23008KT 5SM SHRA VCTS SCT050CB BKN090
     FM280200 20005KT 5SM -SHRA VCTS BKN050CB=



000
FTUS41 KLWX 262300
TAFDCA
TAF
KDCA 262336Z 2700/2724 18008KT P6SM SCT090
     FM270200 16006KT P6SM BKN090
     FM270800 22004KT P6SM BKN090
     FM271800 24008KT 5SM SHRA VCTS SCT050CB BKN090=



000
FTUS41 KLWX 262300
TAFCHO
TAF
KCHO 262336Z 2700/2724 17005KT P6SM FEW050 SCT090
      TEMPO 2702/2704 4SM TSRA BKN030CB
     FM270500 00000KT P6SM BKN090
     FM271500 23006KT P6SM SCT050 BKN090
     FM271800 23007KT 5SM SHRA VCTS SCT050CB BKN090=



000
FTUS41 KLWX 262300
TAFIAD
TAF
KIAD 262336Z 2700/2806 19005KT P6SM SCT090
     FM270200 16005KT P6SM BKN090
     FM271200 23004KT P6SM BKN090
     FM271800 23008KT 5SM SHRA VCTS SCT050CB BKN090
     FM280200 20005KT 5SM -SHRA VCTS BKN050CB=



000
FTUS41 KLWX 262300
TAFMTN
TAF
KMTN 262336Z 2700/2724 17006KT P6SM SCT090
     FM270200 17007KT P6SM BKN090
     FM271400 23005KT P6SM SCT050 BKN130
     FM271800 24008KT 5SM SHRA VCTS SCT050CB BKN090
      AMD NOT SKED 2702/2712=



000
FTUS41 KLWX 262300
TAFMRB
TAF
KMRB 262336Z 2700/2724 15006KT P6SM BKN050 BKN090
      TEMPO 2702/2704 4SM TSRA BKN030CB
     FM270400 00000KT P6SM BKN090
     FM270600 00000KT P6SM VCTS SCT050CB BKN090
     FM270900 VRB03KT P6SM BKN050 BKN090
     FM271500 23005KT 5SM -SHRA VCTS SCT050CB BKN090
     FM271800 25009KT 5SM SHRA VCTS BKN050CB=



000
FTUS41 KLWX 262300
TAFBWI
TAF
KBWI 262336Z 2700/2806 16006KT P6SM FEW050 SCT090
     FM270200 16006KT P6SM BKN090
     FM270800 23006KT P6SM BKN090
     FM271800 25007KT 5SM SHRA VCTS SCT050CB BKN090
     FM280200 19006KT 5SM -SHRA VCTS BKN050CB=



    US Dept of Commerce
    National Oceanic and Atmospheric Administration
    National Weather Service
    1325 East West Highway
    Silver Spring, MD 20910
    Page Author: NWS Internet Services Team
Disclaimer
Information Quality
Credits
Glossary
Privacy Policy
Freedom of Information Act (FOIA)
About Us
Career Opportunities